Time;durP1;ratioP1;P1;durP2;ratioP2;P2;SDS_P1;SDS_P2;PMS_P1;PMS_P2;Temp;Humidity;BMP_temperature;BMP_pressure;BME280_temperature;BME280_humidity;BME280_pressure;Samples;Min_cycle;Max_cycle;Signal;HPM_P1;HPM_P2
2023/09/11 00:02:27;;;;;;;6.47;3.47;;;17.10;99.90;;;;;;5073074;28;20200;-76
2023/09/11 00:04:58;;;;;;;4.85;3.20;;;17.10;99.90;;;;;;5072760;28;20247;-76
2023/09/11 00:07:28;;;;;;;7.07;3.13;;;17.20;99.90;;;;;;5082024;28;20189;-75
2023/09/11 00:09:59;;;;;;;4.28;2.75;;;17.30;99.90;;;;;;5082843;28;20209;-77
2023/09/11 00:12:32;;;;;;;5.68;3.00;;;17.40;99.90;;;;;;5088767;28;20672;-77
2023/09/11 00:15:03;;;;;;;6.85;3.60;;;17.40;99.90;;;;;;5093018;28;20208;-77
2023/09/11 00:17:33;;;;;;;5.95;3.90;;;17.50;99.90;;;;;;5096185;28;20212;-76
2023/09/11 00:20:09;;;;;;;8.52;5.18;;;17.60;99.90;;;;;;5095484;28;20184;-77
2023/09/11 00:22:40;;;;;;;5.25;3.20;;;17.60;99.90;;;;;;5096182;28;20683;-77
2023/09/11 00:25:12;;;;;;;5.13;3.20;;;17.70;99.90;;;;;;5081478;28;20188;-77
2023/09/11 00:27:44;;;;;;;4.68;3.72;;;17.80;99.90;;;;;;5085949;28;20255;-76
2023/09/11 00:30:16;;;;;;;7.78;3.40;;;17.90;99.90;;;;;;5095984;28;20636;-78
2023/09/11 00:32:46;;;;;;;8.00;4.20;;;18.00;99.90;;;;;;5096185;28;20652;-77
2023/09/11 00:35:17;;;;;;;4.03;2.58;;;18.10;99.90;;;;;;5097023;28;20215;-76
2023/09/11 00:37:48;;;;;;;4.15;2.60;;;18.20;99.90;;;;;;5096032;28;20308;-77
2023/09/11 00:40:19;;;;;;;5.30;3.00;;;18.20;99.90;;;;;;5084465;28;20188;-76
2023/09/11 00:42:52;;;;;;;4.07;2.50;;;18.30;99.90;;;;;;5096132;28;20194;-77
2023/09/11 00:45:23;;;;;;;5.75;2.50;;;18.50;99.90;;;;;;5095908;28;20196;-77
2023/09/11 00:47:54;;;;;;;3.72;2.20;;;18.60;99.90;;;;;;5095746;28;20203;-77
2023/09/11 00:50:25;;;;;;;4.57;2.50;;;18.70;99.90;;;;;;5091492;28;20583;-77
2023/09/11 00:52:56;;;;;;;2.85;2.20;;;18.80;99.90;;;;;;5096043;28;20285;-77
2023/09/11 00:55:28;;;;;;;3.63;1.98;;;18.90;99.90;;;;;;5096351;28;20613;-76
2023/09/11 00:58:01;;;;;;;3.40;2.38;;;18.80;99.90;;;;;;5089353;28;20684;-76
2023/09/11 01:00:32;;;;;;;4.28;2.40;;;18.90;99.90;;;;;;5094937;28;20187;-77
2023/09/11 01:03:02;;;;;;;5.20;2.42;;;19.00;99.90;;;;;;5096176;28;20709;-77
2023/09/11 01:05:34;;;;;;;3.35;2.75;;;19.10;99.90;;;;;;5094863;28;20184;-76
2023/09/11 01:08:05;;;;;;;3.80;2.25;;;19.10;99.90;;;;;;5095610;28;20224;-76
2023/09/11 01:10:36;;;;;;;4.43;2.25;;;19.30;99.90;;;;;;5094544;28;20180;-76
2023/09/11 01:13:09;;;;;;;3.33;2.30;;;19.40;99.90;;;;;;5095062;28;20666;-79
2023/09/11 01:15:49;;;;;;;4.43;2.20;;;19.50;99.90;;;;;;5094953;28;20271;-76
2023/09/11 01:18:25;;;;;;;3.28;2.10;;;19.40;99.90;;;;;;5094893;28;20238;-78
2023/09/11 01:21:31;;;;;;;3.42;1.98;;;19.50;99.90;;;;;;5094583;28;20180;-77
2023/09/11 01:24:24;;;;;;;3.88;2.03;;;19.70;99.90;;;;;;5094653;28;20654;-78
2023/09/11 01:27:45;;;;;;;5.38;2.10;;;19.80;99.90;;;;;;5084829;28;20201;-78
2023/09/11 01:30:18;;;;;;;2.35;1.70;;;19.90;99.90;;;;;;5049599;28;20659;-77
2023/09/11 01:32:50;;;;;;;3.88;1.90;;;20.00;99.90;;;;;;5094863;28;20203;-78
2023/09/11 01:35:20;;;;;;;4.22;2.00;;;19.90;99.90;;;;;;5093433;28;20207;-78
2023/09/11 01:37:51;;;;;;;3.58;1.95;;;19.70;99.90;;;;;;5093549;28;20212;-79
2023/09/11 01:40:24;;;;;;;3.33;1.95;;;19.80;99.90;;;;;;5091369;28;20639;-78
2023/09/11 01:42:58;;;;;;;3.33;1.83;;;19.90;99.90;;;;;;5074976;28;20560;-78
2023/09/11 01:45:32;;;;;;;3.47;1.75;;;20.10;99.90;;;;;;5089442;28;20202;-77
2023/09/11 01:48:04;;;;;;;4.22;2.10;;;20.20;99.90;;;;;;5092968;28;20671;-78
2023/09/11 01:50:35;;;;;;;3.25;1.40;;;20.20;99.90;;;;;;5093865;28;20180;-78
2023/09/11 01:53:06;;;;;;;2.78;1.67;;;20.30;99.90;;;;;;5093436;28;20722;-77
2023/09/11 01:55:37;;;;;;;3.25;1.30;;;20.40;99.90;;;;;;5094668;28;20196;-78
2023/09/11 01:58:08;;;;;;;2.45;1.52;;;20.40;99.90;;;;;;5088189;28;20219;-78
2023/09/11 02:00:41;;;;;;;3.25;1.63;;;20.40;99.90;;;;;;5084093;28;20188;-77
2023/09/11 02:03:12;;;;;;;4.30;1.67;;;20.50;99.90;;;;;;5091330;28;20276;-79
2023/09/11 02:05:42;;;;;;;4.28;1.95;;;20.60;99.90;;;;;;5074336;28;20193;-77
2023/09/11 02:08:13;;;;;;;4.00;2.22;;;20.80;99.90;;;;;;5074117;28;20224;-76
2023/09/11 02:10:45;;;;;;;7.95;5.28;;;20.80;99.90;;;;;;5092613;28;20196;-77
2023/09/11 02:13:15;;;;;;;11.10;7.95;;;20.90;99.90;;;;;;5093377;28;20184;-76
2023/09/11 02:15:48;;;;;;;10.80;7.97;;;20.80;99.90;;;;;;5093363;28;20188;-76
2023/09/11 02:18:19;;;;;;;14.85;7.65;;;20.70;99.90;;;;;;5093867;28;20226;-76
2023/09/11 02:20:49;;;;;;;10.95;7.72;;;20.60;99.90;;;;;;5093805;28;20188;-76
2023/09/11 02:23:20;;;;;;;9.35;7.53;;;19.90;99.90;;;;;;5093895;28;20192;-84
2023/09/11 02:25:53;;;;;;;12.82;8.00;;;19.60;99.90;;;;;;5093550;28;20561;-76
2023/09/11 02:28:23;;;;;;;11.23;7.38;;;19.80;99.90;;;;;;5094005;28;20207;-77
2023/09/11 02:30:57;;;;;;;9.07;7.15;;;20.00;99.90;;;;;;5094066;28;20195;-77
2023/09/11 02:33:28;;;;;;;9.77;6.63;;;19.90;99.90;;;;;;5093987;28;20287;-77
2023/09/11 02:35:59;;;;;;;11.48;8.10;;;20.10;99.90;;;;;;5093790;28;20192;-77
2023/09/11 02:38:31;;;;;;;10.68;7.65;;;20.10;99.90;;;;;;5092398;28;20298;-78
2023/09/11 02:41:02;;;;;;;10.80;7.70;;;20.10;99.90;;;;;;5079573;28;20271;-78
2023/09/11 02:43:33;;;;;;;12.00;7.80;;;20.00;99.90;;;;;;5086916;28;20284;-77
2023/09/11 02:46:05;;;;;;;13.68;7.80;;;20.00;99.90;;;;;;5093899;28;20192;-78
2023/09/11 02:48:36;;;;;;;14.25;8.57;;;20.00;99.90;;;;;;5093758;28;20192;-77
2023/09/11 02:51:07;;;;;;;13.75;8.90;;;20.00;99.90;;;;;;5092352;28;20188;-78
2023/09/11 02:53:38;;;;;;;12.02;7.90;;;20.10;99.90;;;;;;5093067;28;20200;-76
2023/09/11 02:56:09;;;;;;;11.63;7.95;;;20.10;99.90;;;;;;5092908;28;20199;-77
2023/09/11 02:58:40;;;;;;;11.43;7.35;;;20.20;99.90;;;;;;5093389;28;20297;-76
2023/09/11 03:01:13;;;;;;;12.25;7.85;;;20.30;99.90;;;;;;5093312;28;20206;-78
2023/09/11 03:03:44;;;;;;;10.13;7.05;;;20.40;99.90;;;;;;5093460;28;20192;-78
2023/09/11 03:06:15;;;;;;;11.32;7.70;;;20.40;99.90;;;;;;5093026;28;20599;-79
2023/09/11 03:08:46;;;;;;;9.32;6.65;;;20.20;99.90;;;;;;5090853;28;20227;-77
2023/09/11 03:11:18;;;;;;;8.07;6.15;;;20.10;99.90;;;;;;5093379;28;20278;-78
2023/09/11 03:13:50;;;;;;;9.15;6.13;;;20.00;99.90;;;;;;5093583;28;20203;-77
2023/09/11 03:16:23;;;;;;;9.32;6.60;;;19.90;99.90;;;;;;5093291;28;20214;-77
2023/09/11 03:18:55;;;;;;;7.85;6.03;;;19.80;99.90;;;;;;5093151;28;20216;-78
2023/09/11 03:21:26;;;;;;;9.43;5.93;;;19.70;99.90;;;;;;5087380;28;20192;-75
2023/09/11 03:23:57;;;;;;;9.07;6.32;;;19.60;99.90;;;;;;5093376;28;20202;-78
2023/09/11 03:26:28;;;;;;;10.43;5.60;;;19.70;99.90;;;;;;5092643;28;20196;-77
2023/09/11 03:28:59;;;;;;;7.32;5.57;;;19.70;99.90;;;;;;5093059;28;20211;-77
2023/09/11 03:31:32;;;;;;;7.63;5.60;;;19.70;99.90;;;;;;5092077;28;20198;-77
2023/09/11 03:34:03;;;;;;;8.93;5.63;;;19.60;99.90;;;;;;5092923;28;20556;-77
2023/09/11 03:36:33;;;;;;;8.07;5.30;;;19.70;99.90;;;;;;5092531;28;20648;-78
2023/09/11 03:39:04;;;;;;;6.97;4.80;;;19.70;99.90;;;;;;5086922;28;20203;-77
2023/09/11 03:41:36;;;;;;;6.10;4.53;;;19.70;99.90;;;;;;5085403;28;20188;-77
2023/09/11 03:44:07;;;;;;;8.15;4.25;;;19.60;99.90;;;;;;5093244;28;20631;-78
2023/09/11 03:46:40;;;;;;;6.20;4.32;;;19.50;99.90;;;;;;5076926;28;20193;-77
2023/09/11 03:49:11;;;;;;;6.47;4.60;;;19.40;99.90;;;;;;5093177;28;20224;-77
2023/09/11 03:51:42;;;;;;;7.93;4.18;;;19.40;99.90;;;;;;5096001;28;20708;-78
2023/09/11 03:54:13;;;;;;;6.53;3.83;;;19.40;99.90;;;;;;5097048;28;20539;-76
2023/09/11 03:56:44;;;;;;;3.95;2.78;;;19.40;99.90;;;;;;5096660;28;20191;-77
2023/09/11 03:59:15;;;;;;;4.47;2.47;;;19.50;99.90;;;;;;5096918;28;20196;-77
2023/09/11 04:01:48;;;;;;;2.92;1.98;;;19.60;99.90;;;;;;5096011;28;20197;-77
2023/09/11 04:04:19;;;;;;;3.67;2.30;;;19.50;99.90;;;;;;5096828;28;20241;-77
2023/09/11 04:06:50;;;;;;;5.07;2.55;;;19.50;99.90;;;;;;5095777;28;20204;-75
2023/09/11 04:09:21;;;;;;;3.42;2.40;;;19.40;99.90;;;;;;5095613;28;20666;-77
2023/09/11 04:11:51;;;;;;;4.10;2.30;;;19.30;99.90;;;;;;5096451;28;20193;-76
2023/09/11 04:14:22;;;;;;;4.35;2.58;;;19.20;99.90;;;;;;5096793;28;20656;-76
2023/09/11 04:16:55;;;;;;;3.15;1.90;;;19.20;99.90;;;;;;5097125;28;20192;-77
2023/09/11 04:19:25;;;;;;;3.55;1.60;;;19.10;99.90;;;;;;5090148;28;20189;-77
2023/09/11 04:21:56;;;;;;;2.15;1.30;;;19.10;99.90;;;;;;5091241;28;20562;-79
2023/09/11 04:24:27;;;;;;;6.57;2.40;;;19.20;99.90;;;;;;5083126;28;20191;-77
2023/09/11 04:26:58;;;;;;;2.10;1.52;;;19.10;99.90;;;;;;5088812;28;20181;-76
2023/09/11 04:29:32;;;;;;;4.05;1.98;;;19.10;99.90;;;;;;5088470;28;20184;-77
2023/09/11 04:32:04;;;;;;;4.35;1.80;;;19.20;99.90;;;;;;5084746;28;20242;-80
2023/09/11 04:34:36;;;;;;;3.28;1.88;;;19.10;99.90;;;;;;5082580;28;20641;-76
2023/09/11 04:37:06;;;;;;;3.33;2.00;;;19.10;99.90;;;;;;5082572;28;20185;-77
2023/09/11 04:39:37;;;;;;;3.60;2.00;;;19.20;99.90;;;;;;5082278;28;20195;-77
2023/09/11 04:42:08;;;;;;;4.47;1.65;;;19.10;99.90;;;;;;5081742;28;20205;-80
2023/09/11 04:44:39;;;;;;;3.92;1.88;;;19.00;99.90;;;;;;5080824;28;20284;-79
2023/09/11 04:47:12;;;;;;;3.38;1.90;;;19.00;99.90;;;;;;5080707;28;20188;-79
2023/09/11 04:49:43;;;;;;;6.07;1.80;;;19.00;99.90;;;;;;5081088;28;20185;-79
2023/09/11 04:52:13;;;;;;;2.70;1.85;;;18.90;99.90;;;;;;5081743;28;20224;-78
2023/09/11 04:54:44;;;;;;;3.80;1.80;;;18.90;99.90;;;;;;5081038;28;20532;-79
2023/09/11 04:57:15;;;;;;;3.50;1.80;;;18.90;99.90;;;;;;5080972;28;20192;-79
2023/09/11 04:59:46;;;;;;;3.88;1.80;;;18.70;99.90;;;;;;5080965;28;20227;-79
2023/09/11 05:02:19;;;;;;;3.75;1.80;;;18.70;99.90;;;;;;5079740;28;20268;-79
2023/09/11 05:04:51;;;;;;;6.13;2.00;;;18.70;99.90;;;;;;5081188;28;20234;-78
2023/09/11 05:07:22;;;;;;;4.47;2.10;;;18.60;99.90;;;;;;5080834;28;20238;-79
2023/09/11 05:09:53;;;;;;;3.13;1.90;;;18.60;99.90;;;;;;5081399;28;20192;-78
2023/09/11 05:12:23;;;;;;;4.10;1.90;;;18.70;99.90;;;;;;5081527;28;20200;-79
2023/09/11 05:14:54;;;;;;;4.07;2.10;;;18.70;99.90;;;;;;5081247;28;20190;-78
2023/09/11 05:17:27;;;;;;;4.55;1.85;;;18.70;99.90;;;;;;5085789;28;20191;-79
2023/09/11 05:19:58;;;;;;;3.22;2.00;;;18.60;99.90;;;;;;5093517;28;20207;-79
2023/09/11 05:22:28;;;;;;;4.60;1.73;;;18.50;99.90;;;;;;5095217;28;20199;-79
2023/09/11 05:24:59;;;;;;;3.75;1.67;;;18.50;99.90;;;;;;5095388;28;20192;-79
2023/09/11 05:27:30;;;;;;;5.90;1.77;;;18.50;99.90;;;;;;5088642;28;20633;-80
2023/09/11 05:30:01;;;;;;;3.38;1.55;;;18.40;99.90;;;;;;5075452;28;20200;-79
2023/09/11 05:32:34;;;;;;;3.20;1.67;;;18.40;99.90;;;;;;5075180;28;20189;-80
2023/09/11 05:35:05;;;;;;;3.30;1.58;;;18.40;99.90;;;;;;5084623;28;20217;-79
2023/09/11 05:37:36;;;;;;;5.50;1.70;;;18.40;99.90;;;;;;5095002;28;20244;-78
2023/09/11 05:40:08;;;;;;;3.08;1.60;;;18.40;99.90;;;;;;5095305;28;20224;-79
2023/09/11 05:42:39;;;;;;;4.45;1.77;;;18.30;99.90;;;;;;5095385;28;20223;-78
2023/09/11 05:45:10;;;;;;;3.20;1.55;;;18.30;99.90;;;;;;5094950;28;20192;-76
2023/09/11 05:47:43;;;;;;;2.67;1.70;;;18.30;99.90;;;;;;5094882;28;20250;-76
2023/09/11 05:50:14;;;;;;;6.13;1.95;;;18.40;99.90;;;;;;5089300;28;20189;-74
2023/09/11 05:52:45;;;;;;;3.53;1.80;;;18.40;99.90;;;;;;5074234;28;20762;-76
2023/09/11 05:55:16;;;;;;;3.53;1.65;;;18.40;99.90;;;;;;5079874;28;20223;-77
2023/09/11 05:57:47;;;;;;;3.30;1.80;;;18.40;99.90;;;;;;5094411;28;20247;-77
2023/09/11 06:00:19;;;;;;;3.67;1.38;;;18.40;99.90;;;;;;5092516;28;20243;-75
2023/09/11 06:02:52;;;;;;;2.45;1.42;;;18.20;99.90;;;;;;5077940;28;20243;-76
2023/09/11 06:05:23;;;;;;;4.68;1.50;;;18.20;99.90;;;;;;5080170;28;20195;-79
2023/09/11 06:07:53;;;;;;;3.20;1.55;;;18.20;99.90;;;;;;5094241;28;20601;-78
2023/09/11 06:10:24;;;;;;;5.28;1.88;;;18.30;99.90;;;;;;5094535;28;20192;-78
2023/09/11 06:12:55;;;;;;;3.45;1.42;;;18.20;99.90;;;;;;5094241;28;20192;-76
2023/09/11 06:15:26;;;;;;;2.90;1.50;;;18.00;99.90;;;;;;5093903;28;20202;-77
2023/09/11 06:17:59;;;;;;;2.97;1.70;;;17.90;99.90;;;;;;5084715;28;20258;-77
2023/09/11 06:20:30;;;;;;;2.65;1.70;;;18.00;99.90;;;;;;5080010;28;20185;-78
2023/09/11 06:23:00;;;;;;;4.20;1.70;;;18.00;99.90;;;;;;5094686;28;20350;-77
2023/09/11 06:25:31;;;;;;;4.00;1.60;;;17.90;99.90;;;;;;5094037;28;20219;-77
2023/09/11 06:28:03;;;;;;;4.18;1.60;;;17.90;99.90;;;;;;5094161;28;20189;-75
2023/09/11 06:30:34;;;;;;;4.28;1.80;;;17.80;99.90;;;;;;5093807;28;20184;-77
2023/09/11 06:33:07;;;;;;;2.65;1.50;;;17.80;99.90;;;;;;5083113;28;20184;-77
2023/09/11 06:35:38;;;;;;;4.63;1.75;;;17.70;99.90;;;;;;5093766;28;20188;-76
2023/09/11 06:38:09;;;;;;;3.65;1.70;;;17.60;99.90;;;;;;5093767;28;20223;-75
2023/09/11 06:40:39;;;;;;;6.05;1.70;;;17.50;99.90;;;;;;5093811;28;20195;-76
2023/09/11 06:43:10;;;;;;;2.95;1.65;;;17.50;99.90;;;;;;5094017;28;20189;-76
2023/09/11 06:45:41;;;;;;;2.25;1.60;;;17.50;99.90;;;;;;5094106;28;20202;-75
2023/09/11 06:48:15;;;;;;;3.97;1.35;;;17.50;99.90;;;;;;5086645;28;20193;-77
2023/09/11 06:50:46;;;;;;;1.98;1.40;;;17.50;99.90;;;;;;5092960;28;20635;-76
2023/09/11 06:53:16;;;;;;;2.33;1.50;;;17.50;99.90;;;;;;5092143;28;20587;-76
2023/09/11 06:55:51;;;;;;;3.22;1.70;;;17.40;99.90;;;;;;5073607;28;20189;-76
2023/09/11 06:58:21;;;;;;;2.63;1.90;;;17.40;99.90;;;;;;5080525;28;20249;-76
2023/09/11 07:00:52;;;;;;;2.95;1.48;;;17.40;99.90;;;;;;5093698;28;20573;-77
2023/09/11 07:03:25;;;;;;;3.30;1.58;;;17.30;99.90;;;;;;5093473;28;20195;-77
2023/09/11 07:05:55;;;;;;;2.42;1.50;;;17.30;99.90;;;;;;5081900;28;20636;-76
2023/09/11 07:08:26;;;;;;;3.15;1.50;;;17.20;99.90;;;;;;5080742;28;20203;-77
2023/09/11 07:10:58;;;;;;;4.63;1.83;;;17.20;99.90;;;;;;5091460;28;20184;-76
2023/09/11 07:13:29;;;;;;;2.97;1.92;;;17.10;99.90;;;;;;5079167;28;20192;-77
2023/09/11 07:16:00;;;;;;;4.45;1.98;;;17.00;99.90;;;;;;5090980;28;20200;-76
2023/09/11 07:18:33;;;;;;;3.35;1.63;;;17.00;99.90;;;;;;5083868;28;20778;-76
2023/09/11 07:21:04;;;;;;;3.13;1.80;;;16.90;99.90;;;;;;5084487;28;20717;-77
2023/09/11 07:23:35;;;;;;;4.78;2.25;;;16.80;99.90;;;;;;5091903;28;20554;-78
2023/09/11 07:26:05;;;;;;;4.22;2.10;;;16.70;99.90;;;;;;5092710;28;20188;-77
2023/09/11 07:28:54;;;;;;;3.10;1.90;;;16.70;99.90;;;;;;5093480;28;20275;-77
2023/09/11 07:31:24;;;;;;;4.13;2.00;;;16.60;99.90;;;;;;5093387;28;20200;-77
2023/09/11 07:33:57;;;;;;;5.82;2.00;;;16.60;99.90;;;;;;5092741;28;20573;-77
2023/09/11 07:36:29;;;;;;;3.38;1.92;;;16.50;99.90;;;;;;5092934;28;20545;-77
2023/09/11 07:39:00;;;;;;;3.97;2.00;;;16.40;99.90;;;;;;5093118;28;20224;-76
2023/09/11 07:41:30;;;;;;;4.60;2.35;;;16.40;99.90;;;;;;5093194;28;20188;-77
2023/09/11 07:44:01;;;;;;;4.10;2.20;;;16.40;99.90;;;;;;5093242;28;20222;-76
2023/09/11 07:46:32;;;;;;;3.30;1.90;;;16.30;99.90;;;;;;5092867;28;20636;-77
2023/09/11 07:49:05;;;;;;;4.15;1.77;;;16.30;99.90;;;;;;5087154;28;20201;-77
2023/09/11 07:51:35;;;;;;;4.85;2.00;;;16.20;99.90;;;;;;5071435;28;20233;-78
2023/09/11 07:54:06;;;;;;;5.45;1.95;;;16.20;99.90;;;;;;5078849;28;20192;-77
2023/09/11 07:56:38;;;;;;;6.03;2.20;;;16.20;99.90;;;;;;5092925;28;20193;-77
2023/09/11 07:59:08;;;;;;;3.85;2.00;;;16.10;99.90;;;;;;5092641;28;20977;-77
2023/09/11 08:01:39;;;;;;;6.00;2.10;;;16.10;99.90;;;;;;5091346;28;20188;-77
2023/09/11 08:04:12;;;;;;;3.80;1.90;;;16.10;99.90;;;;;;5072878;28;20710;-77
2023/09/11 08:06:43;;;;;;;5.82;1.90;;;16.00;99.90;;;;;;5081707;28;20228;-77
2023/09/11 08:09:13;;;;;;;4.55;1.80;;;16.00;99.90;;;;;;5081462;28;20249;-77
2023/09/11 08:11:44;;;;;;;5.53;2.13;;;15.90;99.90;;;;;;5092960;28;20192;-77
2023/09/11 08:14:15;;;;;;;3.47;1.80;;;15.90;99.90;;;;;;5073920;28;20193;-77
2023/09/11 08:16:46;;;;;;;5.40;1.88;;;15.90;99.90;;;;;;5072445;28;20560;-77
2023/09/11 08:19:18;;;;;;;3.70;1.90;;;15.80;99.90;;;;;;5072653;28;20217;-76
2023/09/11 08:21:50;;;;;;;3.25;1.90;;;15.80;99.90;;;;;;5087321;28;20201;-78
2023/09/11 08:24:21;;;;;;;4.70;1.88;;;15.80;99.90;;;;;;5092766;28;20200;-77
2023/09/11 08:26:52;;;;;;;3.38;1.98;;;15.80;99.90;;;;;;5092616;28;20564;-77
2023/09/11 08:29:23;;;;;;;4.32;2.08;;;15.70;99.90;;;;;;5092806;28;20659;-77
2023/09/11 08:31:53;;;;;;;3.35;1.90;;;15.70;99.90;;;;;;5092213;28;20650;-77
2023/09/11 08:34:26;;;;;;;3.72;1.92;;;15.70;99.90;;;;;;5092549;28;20192;-77
2023/09/11 08:36:57;;;;;;;6.22;1.90;;;15.60;99.90;;;;;;5093734;28;20191;-77
2023/09/11 08:39:27;;;;;;;3.17;1.90;;;15.60;99.90;;;;;;5096146;28;20575;-77
2023/09/11 08:41:59;;;;;;;3.13;1.90;;;15.60;99.90;;;;;;5096216;28;20204;-76
2023/09/11 08:44:31;;;;;;;3.92;2.00;;;15.60;99.90;;;;;;5092613;28;20192;-77
2023/09/11 08:47:04;;;;;;;3.10;2.00;;;15.60;99.90;;;;;;5079965;28;20212;-77
2023/09/11 08:49:42;;;;;;;4.07;1.80;;;15.50;99.90;;;;;;5083433;28;20559;-77
2023/09/11 08:52:17;;;;;;;3.42;1.80;;;15.50;99.90;;;;;;5095848;28;20232;-77
2023/09/11 08:54:51;;;;;;;4.05;1.90;;;15.50;99.90;;;;;;5094470;28;20195;-76
2023/09/11 08:57:24;;;;;;;4.93;2.13;;;15.40;99.90;;;;;;5094896;28;20666;-76
2023/09/11 09:00:03;;;;;;;4.20;2.10;;;15.40;99.90;;;;;;5095296;28;20219;-76
2023/09/11 09:02:35;;;;;;;4.90;2.40;;;15.40;99.90;;;;;;5084035;28;20196;-76
2023/09/11 09:05:10;;;;;;;6.10;2.17;;;15.40;99.90;;;;;;5095699;28;20204;-76
2023/09/11 09:07:41;;;;;;;3.38;2.03;;;15.30;99.90;;;;;;5095004;28;20196;-77
2023/09/11 09:10:13;;;;;;;3.92;1.90;;;15.30;99.90;;;;;;5095354;28;20311;-76
2023/09/11 09:12:45;;;;;;;3.83;1.88;;;15.20;99.90;;;;;;5095556;28;20203;-77
2023/09/11 09:15:17;;;;;;;3.75;2.08;;;15.20;99.90;;;;;;5095026;28;20667;-77
2023/09/11 09:17:48;;;;;;;3.75;2.13;;;15.20;99.90;;;;;;5095514;28;20192;-76
2023/09/11 09:20:21;;;;;;;5.03;1.88;;;15.10;99.90;;;;;;5095298;28;20742;-76
2023/09/11 09:22:56;;;;;;;5.18;2.10;;;15.10;99.90;;;;;;5095235;28;20202;-76
2023/09/11 09:25:28;;;;;;;6.22;2.40;;;15.10;99.90;;;;;;5095293;28;20245;-76
2023/09/11 09:28:00;;;;;;;5.85;2.08;;;15.10;99.90;;;;;;5095080;28;20200;-77
2023/09/11 09:30:32;;;;;;;4.20;1.95;;;15.10;99.90;;;;;;5095104;28;20200;-77
2023/09/11 09:33:05;;;;;;;2.72;1.90;;;15.00;99.90;;;;;;5084231;28;20207;-76
2023/09/11 09:35:38;;;;;;;4.53;2.10;;;15.00;99.90;;;;;;5095094;28;20674;-77
2023/09/11 09:38:09;;;;;;;4.18;1.92;;;15.00;99.90;;;;;;5095064;28;20192;-76
2023/09/11 09:40:41;;;;;;;4.50;2.05;;;14.90;99.90;;;;;;5081483;28;20212;-76
2023/09/11 09:43:19;;;;;;;4.93;2.25;;;14.90;99.90;;;;;;5094719;28;20196;-77
2023/09/11 09:45:50;;;;;;;4.05;2.33;;;14.90;99.90;;;;;;5094773;28;20204;-76
2023/09/11 09:48:22;;;;;;;3.53;2.20;;;14.90;99.90;;;;;;5093996;28;20192;-76
2023/09/11 09:51:04;;;;;;;6.03;2.10;;;14.80;99.90;;;;;;5094849;28;20206;-76
2023/09/11 09:53:35;;;;;;;4.22;2.20;;;14.80;99.90;;;;;;5094627;28;20196;-76
2023/09/11 09:56:08;;;;;;;4.35;2.42;;;14.70;99.90;;;;;;5094396;28;20208;-76
2023/09/11 09:58:40;;;;;;;5.13;2.65;;;14.70;99.90;;;;;;5094385;28;20203;-76
2023/09/11 10:01:14;;;;;;;3.60;2.22;;;14.70;99.90;;;;;;5094553;28;20584;-77
2023/09/11 10:03:46;;;;;;;4.47;2.20;;;14.60;99.90;;;;;;5085552;28;20559;-77
2023/09/11 10:06:21;;;;;;;4.32;2.40;;;14.60;99.90;;;;;;5094199;28;20252;-76
2023/09/11 10:09:08;;;;;;;3.42;2.10;;;14.60;99.90;;;;;;5094374;28;20200;-77
2023/09/11 10:11:39;;;;;;;5.32;2.53;;;14.60;99.90;;;;;;5094143;28;20203;-76
2023/09/11 10:14:14;;;;;;;4.45;2.35;;;14.50;99.90;;;;;;5094614;28;20203;-76
2023/09/11 10:16:47;;;;;;;6.05;2.42;;;14.50;99.90;;;;;;5081353;28;20644;-76
2023/09/11 10:19:18;;;;;;;5.38;2.50;;;14.50;99.90;;;;;;5094192;28;20212;-76
2023/09/11 10:21:51;;;;;;;4.82;2.85;;;14.50;99.90;;;;;;5087706;28;20211;-76
2023/09/11 10:24:21;;;;;;;6.38;2.90;;;14.50;99.90;;;;;;5094112;28;20193;-76
2023/09/11 10:26:55;;;;;;;8.18;3.30;;;14.40;99.90;;;;;;5093863;28;20203;-76
2023/09/11 10:29:39;;;;;;;6.70;3.50;;;14.40;99.90;;;;;;5094013;28;20204;-76
2023/09/11 10:32:12;;;;;;;5.88;3.20;;;14.40;99.90;;;;;;5094056;28;20196;-77
2023/09/11 10:34:43;;;;;;;7.75;3.35;;;14.40;99.90;;;;;;5094357;28;20200;-77
2023/09/11 10:37:16;;;;;;;7.40;3.47;;;14.40;99.90;;;;;;5093811;28;20211;-77
2023/09/11 10:39:47;;;;;;;6.00;3.40;;;14.30;99.90;;;;;;5093624;28;20218;-77
2023/09/11 10:42:19;;;;;;;7.60;3.53;;;14.30;99.90;;;;;;5093660;28;20196;-76
2023/09/11 10:44:50;;;;;;;6.90;3.28;;;14.30;99.90;;;;;;5093911;28;20204;-76
2023/09/11 10:47:23;;;;;;;7.65;3.42;;;14.30;99.90;;;;;;5093952;28;20200;-77
2023/09/11 10:49:54;;;;;;;6.32;3.28;;;14.30;99.90;;;;;;5093296;28;20188;-76
2023/09/11 10:52:26;;;;;;;6.20;3.25;;;14.30;99.90;;;;;;5092040;28;20235;-76
2023/09/11 10:54:58;;;;;;;5.15;3.22;;;14.30;99.90;;;;;;5093139;28;20188;-76
2023/09/11 10:57:28;;;;;;;7.53;3.63;;;14.30;99.90;;;;;;5093535;28;20207;-76
2023/09/11 11:00:05;;;;;;;8.98;4.13;;;14.20;99.90;;;;;;5092742;28;20294;-77
2023/09/11 11:02:36;;;;;;;7.55;4.05;;;14.20;99.90;;;;;;5093688;28;20192;-76
2023/09/11 11:05:07;;;;;;;8.32;4.47;;;14.20;99.90;;;;;;5092734;28;20224;-76
2023/09/11 11:07:40;;;;;;;9.07;4.45;;;14.20;99.90;;;;;;5093474;28;20189;-76
2023/09/11 11:10:15;;;;;;;7.80;4.13;;;14.20;99.90;;;;;;5093687;28;20192;-76
2023/09/11 11:12:47;;;;;;;8.25;4.03;;;14.10;99.90;;;;;;5093407;28;20192;-76
2023/09/11 11:15:25;;;;;;;8.68;4.00;;;14.10;99.90;;;;;;5093586;28;20192;-77
2023/09/11 11:18:11;;;;;;;7.35;3.83;;;14.10;99.90;;;;;;5093556;28;20237;-77
2023/09/11 11:20:56;;;;;;;8.30;3.63;;;14.10;99.90;;;;;;5093639;28;20224;-76
2023/09/11 11:23:29;;;;;;;5.95;3.50;;;14.10;99.90;;;;;;5092876;28;20200;-76
2023/09/11 11:26:05;;;;;;;8.80;3.20;;;14.00;99.90;;;;;;5093280;28;20189;-76
2023/09/11 11:28:43;;;;;;;5.38;2.92;;;14.00;99.90;;;;;;5093366;28;20184;-77
2023/09/11 11:31:19;;;;;;;6.55;3.00;;;14.00;99.90;;;;;;5093202;28;20200;-76
2023/09/11 11:33:51;;;;;;;6.40;3.28;;;14.00;99.90;;;;;;5093293;28;20196;-77
2023/09/11 11:36:22;;;;;;;7.63;3.25;;;14.00;99.90;;;;;;5093149;28;20191;-76
2023/09/11 11:38:56;;;;;;;4.75;2.83;;;14.00;99.90;;;;;;5093322;28;20192;-76
2023/09/11 11:41:27;;;;;;;5.97;3.00;;;14.00;99.90;;;;;;5093601;28;20216;-77
2023/09/11 11:43:59;;;;;;;6.07;2.80;;;14.00;99.90;;;;;;5093266;28;20189;-77
2023/09/11 11:46:32;;;;;;;6.20;3.30;;;13.90;99.90;;;;;;5093109;28;20184;-76
2023/09/11 11:49:03;;;;;;;5.50;3.22;;;13.90;99.90;;;;;;5072922;28;20189;-76
2023/09/11 11:51:34;;;;;;;5.72;3.05;;;13.90;99.90;;;;;;5072701;28;20331;-76
2023/09/11 11:54:07;;;;;;;5.78;3.17;;;13.90;99.90;;;;;;5075240;28;20661;-76
2023/09/11 11:56:38;;;;;;;7.70;3.15;;;13.90;99.90;;;;;;5072764;28;20637;-76
2023/09/11 11:59:08;;;;;;;9.35;3.70;;;13.80;99.90;;;;;;5072989;28;20193;-76
2023/09/11 12:01:39;;;;;;;8.20;4.00;;;13.80;99.90;;;;;;5072816;28;20242;-76
2023/09/11 12:04:10;;;;;;;6.95;4.00;;;13.80;99.90;;;;;;5081012;28;20612;-77
2023/09/11 12:06:41;;;;;;;8.85;4.20;;;13.80;99.90;;;;;;5092865;28;20255;-77
2023/09/11 12:09:20;;;;;;;7.95;4.60;;;13.80;99.90;;;;;;5092743;28;20195;-76
2023/09/11 12:11:51;;;;;;;9.05;5.07;;;13.70;99.90;;;;;;5095176;28;20192;-76
2023/09/11 12:14:22;;;;;;;9.60;5.30;;;13.70;99.90;;;;;;5096857;28;20195;-77
2023/09/11 12:16:53;;;;;;;9.07;5.63;;;13.70;99.90;;;;;;5097111;28;20200;-77
2023/09/11 12:19:24;;;;;;;10.05;5.82;;;13.70;99.90;;;;;;5096680;28;20188;-77
2023/09/11 12:21:59;;;;;;;9.27;5.68;;;13.70;99.90;;;;;;5096602;28;20215;-76
2023/09/11 12:24:31;;;;;;;8.98;5.35;;;13.70;99.90;;;;;;5096627;28;20191;-77
2023/09/11 12:27:04;;;;;;;8.73;4.50;;;13.70;99.90;;;;;;5096516;28;20195;-77
2023/09/11 12:29:36;;;;;;;9.07;4.75;;;13.70;99.90;;;;;;5096024;28;20188;-76
2023/09/11 12:32:07;;;;;;;9.02;4.70;;;13.70;99.90;;;;;;5095957;28;20184;-77
2023/09/11 12:34:47;;;;;;;7.20;4.93;;;13.70;99.90;;;;;;5096455;28;20184;-77
2023/09/11 12:37:18;;;;;;;9.48;5.30;;;13.60;99.90;;;;;;5096225;28;20185;-77
2023/09/11 12:39:52;;;;;;;9.13;4.75;;;13.60;99.90;;;;;;5096231;28;20231;-77
2023/09/11 12:42:23;;;;;;;9.05;5.40;;;13.60;99.90;;;;;;5095378;28;20195;-77
2023/09/11 12:44:54;;;;;;;10.63;6.30;;;13.60;99.90;;;;;;5095971;28;20227;-77
2023/09/11 12:47:24;;;;;;;12.90;8.00;;;13.60;99.90;;;;;;5096239;28;20195;-77
2023/09/11 12:49:55;;;;;;;20.70;13.13;;;13.60;99.90;;;;;;5095453;28;20196;-76
2023/09/11 12:52:26;;;;;;;20.60;12.65;;;13.60;99.90;;;;;;5082913;28;20220;-76
2023/09/11 12:54:59;;;;;;;43.80;25.95;;;13.50;99.90;;;;;;5085775;28;20570;-76
2023/09/11 12:57:31;;;;;;;52.95;35.83;;;13.50;99.90;;;;;;5095980;28;20271;-76
2023/09/11 13:00:02;;;;;;;103.20;59.72;;;13.50;99.90;;;;;;5096025;28;20296;-77
2023/09/11 13:02:35;;;;;;;136.23;79.10;;;13.40;99.90;;;;;;5096000;28;20563;-76
2023/09/11 13:05:09;;;;;;;189.40;110.90;;;13.40;99.90;;;;;;5095873;28;20710;-76
2023/09/11 13:07:40;;;;;;;298.17;161.27;;;13.40;99.90;;;;;;5095520;28;20188;-76
2023/09/11 13:10:14;;;;;;;384.05;222.20;;;13.40;99.90;;;;;;5095398;28;20203;-77
2023/09/11 13:12:45;;;;;;;385.75;220.73;;;13.40;99.90;;;;;;5095656;28;20608;-76